| time (UTC) | temp F | wind direction | speed knots | gust knots | rain 1hr in | rain 24hr in | rain mn in | humidity % | barometer mb |
| 20260508043945 | 50 | 0 | 0.0 | 0.0 | 0.01 | 0.83 | 0.44 | 95 | 1014.7 |
| 20260508043445 | 50 | 0 | 0.0 | 0.0 | 0.01 | 0.83 | 0.44 | 95 | 1014.6 |
| 20260508042945 | 50 | 0 | 0.0 | 0.0 | 0.01 | 0.83 | 0.44 | 95 | 1014.5 |
| 20260508042446 | 50 | 0 | 0.0 | 0.0 | 0.01 | 0.83 | 0.44 | 95 | 1014.6 |
| 20260508041946 | 50 | 0 | 0.0 | 0.0 | 0.01 | 0.83 | 0.44 | 95 | 1014.6 |
| 20260508041446 | 50 | 0 | 0.0 | 0.0 | 0.01 | 0.83 | 0.44 | 95 | 1014.5 |
| 20260508040945 | 50 | 0 | 0.0 | 0.0 | 0.00 | 0.82 | 0.43 | 95 | 1014.4 |
| 20260508040445 | 50 | 0 | 0.0 | 0.0 | 0.00 | 0.82 | 0.43 | 95 | 1014.4 |
| 20260508035946 | 50 | 0 | 0.0 | 0.0 | 0.01 | 0.82 | 0.43 | 94 | 1014.4 |
| 20260508035447 | 50 | 0 | 0.0 | 0.0 | 0.01 | 0.82 | 0.43 | 94 | 1014.4 |
| 20260508034945 | 50 | 0 | 0.0 | 0.0 | 0.01 | 0.82 | 0.43 | 94 | 1014.4 |
| 20260508034445 | 50 | 0 | 0.0 | 0.0 | 0.01 | 0.82 | 0.43 | 94 | 1014.4 |
| 20260508033945 | 51 | 0 | 0.0 | 0.0 | 0.01 | 0.82 | 0.43 | 94 | 1014.4 |
| 20260508033446 | 51 | 0 | 0.0 | 0.0 | 0.01 | 0.82 | 0.43 | 95 | 1014.3 |
| 20260508032946 | 51 | 0 | 0.0 | 0.0 | 0.01 | 0.82 | 0.43 | 95 | 1014.2 |
| 20260508032445 | 51 | 0 | 0.0 | 0.0 | 0.01 | 0.82 | 0.43 | 95 | 1014.1 |
| 20260508031945 | 50 | 0 | 0.0 | 0.0 | 0.02 | 0.82 | 0.43 | 94 | 1014.0 |
| 20260508031445 | 51 | 0 | 0.0 | 0.0 | 0.02 | 0.82 | 0.43 | 94 | 1014.0 |
| 20260508030945 | 51 | 0 | 0.0 | 0.0 | 0.02 | 0.82 | 0.43 | 94 | 1013.9 |
| 20260508030446 | 51 | 0 | 0.0 | 0.0 | 0.02 | 0.82 | 0.43 | 95 | 1013.8 |
| 20260508025946 | 51 | 0 | 0.0 | 0.0 | 0.02 | 0.81 | 0.43 | 95 | 1013.8 |
| 20260508025445 | 51 | 0 | 0.0 | 0.0 | 0.03 | 0.81 | 0.43 | 95 | 1013.8 |
| 20260508024445 | 51 | 0 | 0.0 | 0.0 | 0.05 | 0.81 | 0.43 | 94 | 1013.7 |
| 20260508023947 | 51 | 0 | 0.0 | 0.0 | 0.06 | 0.81 | 0.43 | 94 | 1013.6 |
| 20260508023446 | 51 | 0 | 0.0 | 0.0 | 0.07 | 0.81 | 0.43 | 94 | 1013.5 |
| 20260508022945 | 51 | 0 | 0.0 | 0.0 | 0.09 | 0.81 | 0.43 | 94 | 1013.5 |
| 20260508022446 | 51 | 0 | 0.0 | 0.0 | 0.11 | 0.81 | 0.43 | 94 | 1013.5 |
| 20260508021946 | 51 | 0 | 0.0 | 0.0 | 0.12 | 0.80 | 0.42 | 94 | 1013.5 |
| 20260508021445 | 51 | 0 | 0.0 | 0.0 | 0.13 | 0.80 | 0.42 | 94 | 1013.6 |
| 20260508020446 | 51 | 0 | 0.0 | 0.0 | 0.16 | 0.79 | 0.40 | 94 | 1013.7 |
| 20260508015946 | 51 | 0 | 0.0 | 0.0 | 0.17 | 0.79 | 0.40 | 94 | 1013.8 |
| 20260508015446 | 51 | 0 | 0.0 | 0.0 | 0.18 | 0.78 | 0.39 | 94 | 1013.9 |
| 20260508014946 | 51 | 0 | 0.0 | 0.0 | 0.22 | 0.77 | 0.39 | 94 | 1013.9 |
| 20260508014446 | 51 | 0 | 0.0 | 0.0 | 0.24 | 0.76 | 0.38 | 94 | 1014.0 |
| 20260508013947 | 51 | 0 | 0.0 | 0.0 | 0.24 | 0.76 | 0.37 | 94 | 1014.0 |
| 20260508013446 | 51 | 0 | 0.0 | 0.0 | 0.24 | 0.74 | 0.35 | 94 | 1013.9 |
| 20260508012947 | 51 | 0 | 0.0 | 0.0 | 0.23 | 0.72 | 0.33 | 94 | 1013.9 |
| 20260508012446 | 52 | 0 | 0.0 | 0.0 | 0.22 | 0.70 | 0.31 | 94 | 1013.9 |
| 20260508011446 | 52 | 0 | 0.0 | 0.0 | 0.20 | 0.67 | 0.28 | 94 | 1013.8 |
| 20260508005947 | 52 | 0 | 0.0 | 0.0 | 0.15 | 0.61 | 0.23 | 94 | 1013.8 |
| 20260508005446 | 52 | 0 | 0.0 | 0.0 | 0.20 | 0.60 | 0.21 | 94 | 1013.6 |
| 20260508004946 | 52 | 0 | 0.0 | 0.0 | 0.17 | 0.55 | 0.17 | 94 | 1013.7 |
| 20260508003946 | 53 | 0 | 0.0 | 0.0 | 0.13 | 0.51 | 0.13 | 94 | 1013.5 |
| 20260508003447 | 53 | 0 | 0.0 | 0.0 | 0.11 | 0.50 | 0.11 | 94 | 1013.6 |
| 20260508002946 | 53 | 0 | 0.0 | 0.0 | 0.10 | 0.49 | 0.10 | 94 | 1013.5 |
| 20260508002446 | 53 | 0 | 0.0 | 0.0 | 0.09 | 0.48 | 0.09 | 94 | 1013.5 |
| 20260508001946 | 53 | 0 | 0.0 | 0.0 | 0.09 | 0.47 | 0.09 | 94 | 1013.5 |
| 20260508001446 | 53 | 0 | 0.0 | 0.0 | 0.09 | 0.47 | 0.09 | 94 | 1013.4 |
| 20260508000947 | 53 | 0 | 0.0 | 0.0 | 0.09 | 0.47 | 0.09 | 94 | 1013.4 |
| 20260507235447 | 53 | 0 | 0.0 | 0.0 | 0.02 | 0.40 | 0.02 | 94 | 1013.3 |
| 20260507234946 | 53 | 0 | 0.0 | 0.0 | 0.00 | 0.39 | 0.00 | 94 | 1013.4 |
| 20260507234446 | 53 | 0 | 0.0 | 0.0 | 0.00 | 0.39 | 0.00 | 94 | 1013.4 |
| 20260507233949 | 53 | 0 | 0.0 | 0.0 | 0.00 | 0.39 | 0.00 | 94 | 1013.4 |
| 20260507233446 | 54 | 0 | 0.0 | 0.0 | 0.00 | 0.39 | 0.00 | 94 | 1013.4 |
| 20260507232446 | 54 | 0 | 0.0 | 0.0 | 0.00 | 0.39 | 0.00 | 94 | 1013.4 |
| 20260507231946 | 54 | 0 | 0.0 | 0.0 | 0.00 | 0.39 | 0.00 | 94 | 1013.5 |
| 20260507231446 | 54 | 0 | 0.0 | 0.0 | 0.00 | 0.39 | 0.00 | 94 | 1013.6 |
| 20260507230446 | 54 | 0 | 0.0 | 0.0 | 0.00 | 0.39 | 0.00 | 94 | 1013.6 |
| 20260507225947 | 54 | 0 | 0.0 | 0.0 | 0.00 | 0.39 | 0.00 | 94 | 1013.5 |
| 20260507225446 | 54 | 0 | 0.0 | 0.0 | 0.00 | 0.39 | 0.00 | 94 | 1013.5 |
| 20260507224947 | 55 | 0 | 0.0 | 0.0 | 0.00 | 0.39 | 0.00 | 94 | 1013.6 |
| 20260507224446 | 54 | 0 | 0.0 | 0.0 | 0.00 | 0.39 | 0.00 | 94 | 1013.6 |
| 20260507223947 | 54 | 0 | 0.0 | 0.0 | 0.00 | 0.39 | 0.00 | 94 | 1013.5 |
| 20260507223446 | 54 | 0 | 0.0 | 0.0 | 0.00 | 0.39 | 0.00 | 94 | 1013.5 |
| 20260507222447 | 54 | 0 | 0.0 | 0.0 | 0.00 | 0.39 | 0.00 | 94 | 1013.5 |
| 20260507221946 | 54 | 0 | 0.0 | 0.0 | 0.00 | 0.39 | 0.00 | 94 | 1013.5 |
| 20260507221446 | 54 | 0 | 0.0 | 0.0 | 0.00 | 0.39 | 0.00 | 94 | 1013.4 |
| 20260507220946 | 54 | 0 | 0.0 | 0.0 | 0.00 | 0.39 | 0.00 | 94 | 1013.3 |
| 20260507220447 | 54 | 0 | 0.0 | 0.0 | 0.00 | 0.39 | 0.00 | 94 | 1013.2 |
| 20260507215948 | 54 | 0 | 0.0 | 0.0 | 0.00 | 0.39 | 0.00 | 94 | 1013.2 |
| 20260507215447 | 54 | 0 | 0.0 | 0.0 | 0.00 | 0.39 | 0.39 | 94 | 1013.2 |
| 20260507214946 | 54 | 0 | 0.0 | 0.0 | 0.00 | 0.39 | 0.39 | 94 | 1013.2 |
| 20260507214446 | 54 | 0 | 0.0 | 0.0 | 0.00 | 0.39 | 0.39 | 94 | 1013.3 |
| 20260507213947 | 54 | 0 | 0.0 | 0.0 | 0.00 | 0.39 | 0.39 | 94 | 1013.3 |
| 20260507212947 | 54 | 0 | 0.0 | 0.0 | 0.00 | 0.39 | 0.39 | 93 | 1013.4 |
| 20260507212449 | 54 | 0 | 0.0 | 0.0 | 0.01 | 0.39 | 0.39 | 94 | 1013.3 |
| 20260507211947 | 54 | 0 | 0.0 | 0.0 | 0.01 | 0.39 | 0.39 | 94 | 1013.3 |
| 20260507211447 | 54 | 0 | 0.0 | 0.0 | 0.01 | 0.39 | 0.39 | 93 | 1013.2 |
| 20260507210947 | 54 | 0 | 0.0 | 0.0 | 0.01 | 0.39 | 0.39 | 93 | 1013.2 |
| 20260507210447 | 54 | 0 | 0.0 | 0.0 | 0.01 | 0.39 | 0.39 | 93 | 1013.1 |
| 20260507205447 | 54 | 0 | 0.0 | 0.0 | 0.01 | 0.39 | 0.39 | 93 | 1013.0 |
| 20260507204948 | 54 | 0 | 0.0 | 0.0 | 0.01 | 0.39 | 0.39 | 93 | 1012.9 |
| 20260507204447 | 54 | 0 | 0.0 | 0.0 | 0.01 | 0.39 | 0.39 | 93 | 1012.8 |
| 20260507203447 | 54 | 0 | 0.0 | 0.0 | 0.01 | 0.39 | 0.39 | 93 | 1012.5 |
| 20260507202947 | 54 | 0 | 0.0 | 0.0 | 0.01 | 0.39 | 0.39 | 93 | 1012.4 |
| 20260507201947 | 55 | 0 | 0.0 | 0.0 | 0.00 | 0.38 | 0.38 | 93 | 1012.4 |
| 20260507201447 | 55 | 0 | 0.0 | 0.0 | 0.00 | 0.38 | 0.38 | 93 | 1012.4 |
| 20260507200947 | 55 | 0 | 0.0 | 0.0 | 0.00 | 0.38 | 0.38 | 93 | 1012.4 |
| 20260507200448 | 55 | 0 | 0.0 | 0.0 | 0.00 | 0.38 | 0.38 | 93 | 1012.7 |
| 20260507195947 | 55 | 0 | 0.0 | 0.0 | 0.00 | 0.38 | 0.38 | 93 | 1012.9 |
| 20260507195446 | 54 | 0 | 0.0 | 0.0 | 0.00 | 0.38 | 0.38 | 93 | 1012.8 |
| 20260507194947 | 55 | 0 | 0.0 | 0.0 | 0.00 | 0.38 | 0.38 | 93 | 1012.7 |
| 20260507194447 | 55 | 0 | 0.0 | 0.0 | 0.00 | 0.38 | 0.38 | 93 | 1012.6 |
| 20260507192947 | 55 | 0 | 0.0 | 0.0 | 0.03 | 0.38 | 0.38 | 92 | 1012.2 |
| 20260507192447 | 55 | 0 | 0.0 | 0.0 | 0.06 | 0.38 | 0.38 | 92 | 1012.0 |
| 20260507191947 | 55 | 0 | 0.0 | 0.0 | 0.09 | 0.38 | 0.38 | 92 | 1011.9 |
| 20260507191448 | 55 | 0 | 0.0 | 0.0 | 0.15 | 0.38 | 0.38 | 92 | 1011.9 |
| 20260507190947 | 54 | 0 | 0.0 | 0.0 | 0.20 | 0.38 | 0.38 | 92 | 1011.9 |
| 20260507190448 | 54 | 0 | 0.0 | 0.0 | 0.20 | 0.38 | 0.38 | 92 | 1011.9 |
| 20260507185448 | 55 | 0 | 0.0 | 0.0 | 0.20 | 0.38 | 0.38 | 92 | 1012.0 |
| 20260507184947 | 55 | 0 | 0.0 | 0.0 | 0.20 | 0.38 | 0.38 | 92 | 1012.0 |
| 20260507184447 | 55 | 0 | 0.0 | 0.0 | 0.20 | 0.38 | 0.38 | 92 | 1011.9 |
| 20260507183948 | 55 | 0 | 0.0 | 0.0 | 0.20 | 0.37 | 0.37 | 92 | 1011.8 |
| 20260507182947 | 55 | 0 | 0.0 | 0.0 | 0.17 | 0.34 | 0.34 | 91 | 1011.8 |
| 20260507182448 | 55 | 0 | 0.0 | 0.0 | 0.17 | 0.32 | 0.32 | 91 | 1011.9 |
| 20260507181948 | 55 | 0 | 0.0 | 0.0 | 0.12 | 0.27 | 0.27 | 91 | 1011.9 |
| 20260507180448 | 56 | 0 | 0.0 | 0.0 | 0.17 | 0.17 | 0.17 | 91 | 1011.5 |
| 20260507175447 | 56 | 0 | 0.0 | 0.0 | 0.17 | 0.17 | 0.17 | 90 | 1010.6 |
| 20260507174947 | 56 | 0 | 0.0 | 0.0 | 0.17 | 0.17 | 0.17 | 90 | 1010.5 |
| 20260507174449 | 56 | 0 | 0.0 | 0.0 | 0.17 | 0.17 | 0.17 | 89 | 1010.4 |
| 20260507173947 | 56 | 0 | 0.0 | 0.0 | 0.17 | 0.17 | 0.17 | 89 | 1010.3 |
| 20260507173447 | 57 | 0 | 0.0 | 0.0 | 0.17 | 0.17 | 0.17 | 88 | 1010.2 |
| 20260507172947 | 57 | 0 | 0.0 | 0.0 | 0.17 | 0.17 | 0.17 | 88 | 1010.2 |
| 20260507172447 | 57 | 0 | 0.0 | 0.0 | 0.16 | 0.16 | 0.16 | 87 | 1010.1 |
| 20260507171948 | 57 | 0 | 0.0 | 0.0 | 0.15 | 0.15 | 0.15 | 87 | 1010.1 |
| 20260507170947 | 59 | 0 | 0.0 | 0.0 | 0.02 | 0.02 | 0.02 | 84 | 1010.3 |
| 20260507170448 | 59 | 0 | 0.0 | 0.0 | 0.00 | 0.00 | 0.00 | 83 | 1010.1 |
| 20260507165948 | 59 | 0 | 0.0 | 0.0 | 0.00 | 0.00 | 0.00 | 82 | 1009.9 |
| 20260507165449 | 60 | 0 | 0.0 | 0.0 | 0.00 | 0.00 | 0.00 | 82 | 1009.7 |
| 20260507164949 | 60 | 0 | 0.0 | 0.0 | 0.00 | 0.00 | 0.00 | 81 | 1009.6 |
| 20260507164448 | 60 | 0 | 0.0 | 0.0 | 0.00 | 0.00 | 0.00 | 81 | 1009.7 |
| 20260507163947 | 61 | 0 | 0.0 | 0.0 | 0.00 | 0.00 | 0.00 | 81 | 1009.9 |
| 20260507163447 | 61 | 0 | 0.0 | 0.0 | 0.00 | 0.00 | 0.00 | 81 | 1009.9 |
| 20260507161948 | 62 | 0 | 0.0 | 0.0 | 0.00 | 0.00 | 0.00 | 78 | 1009.4 |
| 20260507161450 | 63 | 0 | 0.0 | 0.0 | 0.00 | 0.00 | 0.00 | 77 | 1009.4 |
| 20260507160949 | 64 | 0 | 0.0 | 0.0 | 0.00 | 0.00 | 0.00 | 76 | 1009.4 |
| 20260507160447 | 65 | 0 | 0.0 | 0.0 | 0.00 | 0.00 | 0.00 | 72 | 1009.4 |
| 20260507155947 | 65 | 0 | 0.0 | 0.0 | 0.00 | 0.00 | 0.00 | 69 | 1009.4 |
| 20260507155447 | 66 | 0 | 0.0 | 0.0 | 0.00 | 0.00 | 0.00 | 68 | 1009.4 |
| 20260507154949 | 67 | 0 | 0.0 | 0.0 | 0.00 | 0.00 | 0.00 | 70 | 1009.4 |
| 20260507154449 | 67 | 0 | 0.0 | 0.0 | 0.00 | 0.00 | 0.00 | 69 | 1009.3 |
| 20260507153948 | 67 | 0 | 0.0 | 0.0 | 0.00 | 0.00 | 0.00 | 67 | 1009.4 |
| 20260507153448 | 67 | 0 | 0.0 | 0.0 | 0.00 | 0.00 | 0.00 | 68 | 1009.4 |
| 20260507152949 | 67 | 0 | 0.0 | 0.0 | 0.00 | 0.00 | 0.00 | 65 | 1009.4 |
| 20260507151447 | 69 | 0 | 0.0 | 0.0 | 0.00 | 0.00 | 0.00 | 61 | 1009.2 |
| 20260507150948 | 69 | 0 | 0.0 | 0.0 | 0.00 | 0.00 | 0.00 | 62 | 1009.1 |
| 20260507150447 | 70 | 0 | 0.0 | 0.0 | 0.00 | 0.00 | 0.00 | 61 | 1009.1 |
| 20260507145947 | 71 | 0 | 0.0 | 0.0 | 0.00 | 0.00 | 0.00 | 56 | 1009.1 |
| 20260507145447 | 71 | 0 | 0.0 | 0.0 | 0.00 | 0.00 | 0.00 | 58 | 1009.1 |
| 20260507144948 | 71 | 0 | 0.0 | 0.0 | 0.00 | 0.00 | 0.00 | 57 | 1009.0 |
| 20260507144447 | 71 | 0 | 0.0 | 0.0 | 0.00 | 0.00 | 0.00 | 54 | 1009.0 |
| 20260507143949 | 71 | 0 | 0.0 | 0.0 | 0.00 | 0.00 | 0.00 | 55 | 1009.0 |
| 20260507143448 | 71 | 0 | 0.0 | 0.0 | 0.00 | 0.00 | 0.00 | 55 | 1009.1 |
| 20260507142948 | 71 | 0 | 0.0 | 0.0 | 0.00 | 0.00 | 0.00 | 53 | 1009.0 |
| 20260507141948 | 71 | 0 | 0.0 | 0.0 | 0.00 | 0.00 | 0.00 | 56 | 1009.1 |
| 20260507140949 | 70 | 0 | 0.0 | 0.0 | 0.00 | 0.00 | 0.00 | 63 | 1009.0 |
| 20260507140448 | 70 | 0 | 0.0 | 0.0 | 0.00 | 0.00 | 0.00 | 60 | 1009.0 |
| 20260507135948 | 70 | 0 | 0.0 | 0.0 | 0.00 | 0.00 | 0.00 | 61 | 1009.0 |
| 20260507135449 | 71 | 0 | 0.0 | 0.0 | 0.00 | 0.00 | 0.00 | 62 | 1009.2 |
| 20260507134949 | 70 | 0 | 0.0 | 0.0 | 0.00 | 0.00 | 0.00 | 66 | 1009.1 |
| 20260507134449 | 69 | 0 | 0.0 | 0.0 | 0.00 | 0.00 | 0.00 | 69 | 1009.2 |
| 20260507133947 | 68 | 0 | 0.0 | 0.0 | 0.00 | 0.00 | 0.00 | 70 | 1009.3 |
| 20260507133447 | 68 | 0 | 0.0 | 0.0 | 0.00 | 0.00 | 0.00 | 69 | 1009.4 |
| 20260507132949 | 68 | 0 | 0.0 | 0.0 | 0.00 | 0.00 | 0.00 | 69 | 1009.4 |
| 20260507132448 | 68 | 0 | 0.0 | 0.0 | 0.00 | 0.00 | 0.00 | 70 | 1009.3 |
| 20260507131948 | 68 | 0 | 0.0 | 0.0 | 0.00 | 0.00 | 0.00 | 74 | 1009.3 |
| 20260507131448 | 68 | 0 | 0.0 | 0.0 | 0.00 | 0.00 | 0.00 | 73 | 1009.3 |
| 20260507130950 | 66 | 0 | 0.0 | 0.0 | 0.00 | 0.00 | 0.00 | 77 | 1009.4 |
| 20260507130449 | 65 | 0 | 0.0 | 0.0 | 0.00 | 0.00 | 0.00 | 80 | 1009.4 |
| 20260507125448 | 65 | 0 | 0.0 | 0.0 | 0.00 | 0.00 | 0.00 | 77 | 1009.6 |
| 20260507123948 | 67 | 0 | 0.0 | 0.0 | 0.00 | 0.00 | 0.00 | 67 | 1009.6 |
| 20260507123448 | 68 | 0 | 0.0 | 0.0 | 0.00 | 0.00 | 0.00 | 68 | 1009.6 |
| 20260507122948 | 68 | 0 | 0.0 | 0.0 | 0.00 | 0.00 | 0.00 | 68 | 1009.6 |
| 20260507122449 | 68 | 0 | 0.0 | 0.0 | 0.00 | 0.00 | 0.00 | 67 | 1009.5 |
| 20260507121449 | 69 | 0 | 0.0 | 0.0 | 0.00 | 0.00 | 0.00 | 68 | 1009.7 |
| 20260507120949 | 68 | 0 | 0.0 | 0.0 | 0.00 | 0.00 | 0.00 | 68 | 1009.7 |
| 20260507120449 | 67 | 0 | 0.0 | 0.0 | 0.00 | 0.00 | 0.00 | 68 | 1009.6 |
| 20260507115448 | 67 | 0 | 0.0 | 0.0 | 0.00 | 0.00 | 0.00 | 69 | 1009.7 |
| 20260507114948 | 66 | 0 | 0.0 | 0.0 | 0.00 | 0.00 | 0.00 | 67 | 1009.8 |
| 20260507114448 | 67 | 0 | 0.0 | 0.0 | 0.00 | 0.00 | 0.00 | 68 | 1009.8 |
| 20260507113948 | 67 | 0 | 0.0 | 0.0 | 0.00 | 0.00 | 0.00 | 68 | 1009.7 |
| 20260507113449 | 67 | 0 | 0.0 | 0.0 | 0.00 | 0.00 | 0.00 | 67 | 1009.7 |
| 20260507112949 | 67 | 0 | 0.0 | 0.0 | 0.00 | 0.00 | 0.00 | 67 | 1009.7 |
| 20260507112448 | 68 | 0 | 0.0 | 0.0 | 0.00 | 0.00 | 0.00 | 67 | 1009.7 |
| 20260507111949 | 68 | 0 | 0.0 | 0.0 | 0.00 | 0.00 | 0.00 | 65 | 1009.7 |
| 20260507111449 | 69 | 0 | 0.0 | 0.0 | 0.00 | 0.00 | 0.00 | 65 | 1009.7 |
| 20260507110449 | 69 | 0 | 0.0 | 0.0 | 0.00 | 0.00 | 0.00 | 67 | 1009.8 |
| 20260507105950 | 69 | 0 | 0.0 | 0.0 | 0.00 | 0.00 | 0.00 | 67 | 1009.8 |
| 20260507105448 | 68 | 0 | 0.0 | 0.0 | 0.00 | 0.00 | 0.00 | 67 | 1009.7 |
| 20260507104949 | 68 | 0 | 0.0 | 0.0 | 0.00 | 0.00 | 0.00 | 70 | 1009.7 |
| 20260507104449 | 67 | 0 | 0.0 | 0.0 | 0.00 | 0.00 | 0.00 | 69 | 1009.7 |
| 20260507103449 | 67 | 0 | 0.0 | 0.0 | 0.00 | 0.00 | 0.00 | 70 | 1009.6 |
| 20260507102949 | 67 | 0 | 0.0 | 0.0 | 0.00 | 0.00 | 0.00 | 70 | 1009.6 |
| 20260507102448 | 67 | 0 | 0.0 | 0.0 | 0.00 | 0.00 | 0.00 | 69 | 1009.6 |
| 20260507101948 | 66 | 0 | 0.0 | 0.0 | 0.00 | 0.00 | 0.00 | 71 | 1009.6 |
| 20260507100948 | 67 | 0 | 0.0 | 0.0 | 0.00 | 0.00 | 0.00 | 71 | 1009.7 |
| 20260507095449 | 67 | 0 | 0.0 | 0.0 | 0.00 | 0.00 | 0.00 | 68 | 1009.4 |
| 20260507094949 | 68 | 0 | 0.0 | 0.0 | 0.00 | 0.00 | 0.00 | 70 | 1009.5 |
| 20260507094449 | 67 | 0 | 0.0 | 0.0 | 0.00 | 0.00 | 0.00 | 70 | 1009.4 |
| 20260507093949 | 67 | 0 | 0.0 | 0.0 | 0.00 | 0.00 | 0.00 | 69 | 1009.3 |
| 20260507093450 | 67 | 0 | 0.0 | 0.0 | 0.00 | 0.00 | 0.00 | 70 | 1009.3 |
| 20260507092949 | 67 | 0 | 0.0 | 0.0 | 0.00 | 0.00 | 0.00 | 70 | 1009.3 |
| 20260507092449 | 67 | 0 | 0.0 | 0.0 | 0.00 | 0.00 | 0.00 | 70 | 1009.3 |
| 20260507091949 | 67 | 0 | 0.0 | 0.0 | 0.00 | 0.00 | 0.00 | 72 | 1009.2 |
| 20260507090949 | 65 | 0 | 0.0 | 0.0 | 0.00 | 0.00 | 0.00 | 74 | 1009.1 |
| 20260507090449 | 65 | 0 | 0.0 | 0.0 | 0.00 | 0.00 | 0.00 | 73 | 1009.1 |
| 20260507085949 | 65 | 0 | 0.0 | 0.0 | 0.00 | 0.00 | 0.00 | 73 | 1009.0 |
| 20260507085448 | 65 | 0 | 0.0 | 0.0 | 0.00 | 0.00 | 0.00 | 73 | 1008.9 |
| 20260507084449 | 66 | 0 | 0.0 | 0.0 | 0.00 | 0.00 | 0.00 | 73 | 1008.9 |
| 20260507083950 | 65 | 0 | 0.0 | 0.0 | 0.00 | 0.00 | 0.00 | 74 | 1008.8 |
| 20260507083450 | 65 | 0 | 0.0 | 0.0 | 0.00 | 0.00 | 0.00 | 76 | 1008.7 |
| 20260507082949 | 64 | 0 | 0.0 | 0.0 | 0.00 | 0.00 | 0.00 | 77 | 1008.7 |
| 20260507082450 | 64 | 0 | 0.0 | 0.0 | 0.00 | 0.00 | 0.00 | 77 | 1008.6 |
| 20260507081950 | 64 | 0 | 0.0 | 0.0 | 0.00 | 0.00 | 0.00 | 76 | 1008.5 |
| 20260507081449 | 64 | 0 | 0.0 | 0.0 | 0.00 | 0.00 | 0.00 | 76 | 1008.5 |
| 20260507080949 | 64 | 0 | 0.0 | 0.0 | 0.00 | 0.00 | 0.00 | 75 | 1008.5 |
| 20260507080449 | 65 | 0 | 0.0 | 0.0 | 0.00 | 0.00 | 0.00 | 73 | 1008.5 |
| 20260507075949 | 66 | 0 | 0.0 | 0.0 | 0.00 | 0.00 | 0.00 | 74 | 1008.5 |
| 20260507075449 | 65 | 0 | 0.0 | 0.0 | 0.00 | 0.00 | 0.00 | 76 | 1008.4 |
| 20260507074951 | 64 | 0 | 0.0 | 0.0 | 0.00 | 0.00 | 0.00 | 76 | 1008.4 |
| 20260507073949 | 64 | 0 | 0.0 | 0.0 | 0.00 | 0.00 | 0.00 | 77 | 1008.1 |
| 20260507073449 | 63 | 0 | 0.0 | 0.0 | 0.00 | 0.00 | 0.00 | 78 | 1008.0 |
| 20260507072950 | 63 | 0 | 0.0 | 0.0 | 0.00 | 0.00 | 0.00 | 78 | 1008.0 |
| 20260507072450 | 63 | 0 | 0.0 | 0.0 | 0.00 | 0.00 | 0.00 | 79 | 1008.0 |
| 20260507071450 | 62 | 0 | 0.0 | 0.0 | 0.00 | 0.00 | 0.00 | 78 | 1008.0 |
| 20260507070949 | 63 | 0 | 0.0 | 0.0 | 0.00 | 0.00 | 0.00 | 78 | 1007.8 |
| 20260507070450 | 63 | 0 | 0.0 | 0.0 | 0.00 | 0.00 | 0.00 | 79 | 1007.7 |
| 20260507065951 | 63 | 0 | 0.0 | 0.0 | 0.00 | 0.00 | 0.00 | 78 | 1007.6 |
| 20260507065451 | 63 | 0 | 0.0 | 0.0 | 0.00 | 0.00 | 0.00 | 79 | 1007.7 |
| 20260507064950 | 62 | 0 | 0.0 | 0.0 | 0.00 | 0.00 | 0.00 | 78 | 1007.7 |
| 20260507064450 | 62 | 0 | 0.0 | 0.0 | 0.00 | 0.00 | 0.00 | 79 | 1007.8 |
| 20260507063949 | 62 | 0 | 0.0 | 0.0 | 0.00 | 0.00 | 0.00 | 78 | 1007.7 |
| 20260507063449 | 62 | 0 | 0.0 | 0.0 | 0.00 | 0.00 | 0.00 | 79 | 1007.6 |
| 20260507062450 | 61 | 0 | 0.0 | 0.0 | 0.00 | 0.00 | 0.00 | 80 | 1007.6 |
| 20260507061949 | 61 | 0 | 0.0 | 0.0 | 0.00 | 0.00 | 0.00 | 80 | 1007.6 |
| 20260507061450 | 61 | 0 | 0.0 | 0.0 | 0.00 | 0.00 | 0.00 | 81 | 1007.5 |
| 20260507060449 | 60 | 0 | 0.0 | 0.0 | 0.00 | 0.00 | 0.00 | 81 | 1007.5 |
| 20260507055949 | 60 | 0 | 0.0 | 0.0 | 0.00 | 0.00 | 0.00 | 81 | 1007.5 |
| 20260507055450 | 60 | 0 | 0.0 | 0.0 | 0.00 | 0.00 | 0.00 | 81 | 1007.4 |
| 20260507054949 | 60 | 0 | 0.0 | 0.0 | 0.00 | 0.00 | 0.00 | 81 | 1007.3 |
| 20260507054450 | 60 | 0 | 0.0 | 0.0 | 0.00 | 0.00 | 0.00 | 81 | 1007.3 |
| 20260507053951 | 60 | 0 | 0.0 | 0.0 | 0.00 | 0.00 | 0.00 | 80 | 1007.2 |
| 20260507052951 | 60 | 0 | 0.0 | 0.0 | 0.00 | 0.00 | 0.00 | 80 | 1007.1 |
| 20260507052450 | 60 | 0 | 0.0 | 0.0 | 0.00 | 0.00 | 0.00 | 81 | 1007.1 |
| 20260507051950 | 60 | 0 | 0.0 | 0.0 | 0.00 | 0.00 | 0.00 | 81 | 1007.0 |
| 20260507051450 | 60 | 0 | 0.0 | 0.0 | 0.00 | 0.00 | 0.00 | 81 | 1007.0 |
| 20260507045950 | 60 | 0 | 0.0 | 0.0 | 0.00 | 0.00 | 0.00 | 80 | 1006.8 |
| 20260507045449 | 60 | 0 | 0.0 | 0.0 | 0.00 | 0.00 | 0.00 | 80 | 1006.8 |
| 20260507044951 | 60 | 0 | 0.0 | 0.0 | 0.00 | 0.00 | 0.00 | 80 | 1006.7 |
| 20260507044449 | 60 | 0 | 0.0 | 0.0 | 0.00 | 0.00 | 0.00 | 80 | 1006.7 |